Nearby METAR Reports

 

KMTN - Baltimore/Martin, Maryland, USA
Distance from station: SSE 8mi, 13km
Updated: Sun, 01-Mar-2015 10:45am EST
Light snow, Overcast
Light snow, Overcast
 Wind from SSE
Wind: SSE 13 mph , 20 km/h
Temperature: 27°F , -3°C
Wind Chill: 16°F , -9°C
Dew Point: 25°F , -4°C
Humidity: 93%
Barometer: 30.62 inHg , 1036.9 hPa
Summary: Light Snow
Clouds: Overcast
Visibility: 1 1/4 miles , 2 km
Cloud details: Overcast 700 ft
2015/03/01 15:45 KMTN 011545Z 16011KT 1 1/4SM -SN OVC007 M03/M04 A3062
KDMH - Baltimore/Dwntwn, Maryland, USA
Distance from station: SW 12mi, 19km
Updated: Sun, 01-Mar-2015 10:54am EST

 
Temperature: 1°F , -17°C
Barometer: 30.60 inHg , 1036.2 hPa
2015/03/01 15:54 KDMH 011554Z AUTO M17/ A3060 RMK AO1 SLP360 P0004 T1172 $
 
KBWI - Balto/Wash Intl, Maryland, USA
Distance from station: SSW 20mi, 33km
Updated: Sun, 01-Mar-2015 11:24am EST

 Wind from S
Wind: S 5 mph , 7 km/h
Visibility: 5 miles , 8 km
2015/03/01 16:24 KBWI 011624Z 18004KT 5SM -FZRAPL BR FEW009 OVC041 M03/M06 A3058 RMK AO2 P0002
KDMW - Carroll Cnty, Maryland, USA
Distance from station: WNW 30mi, 48km
Updated: Sun, 01-Mar-2015 11:10am EST
Light snow, Partly cloudy
Light snow, Partly cloudy
 Wind from S
Wind: S 8 mph , 13 km/h
Temperature: 25°F , -4°C
Wind Chill: 16°F , -9°C
Dew Point: 21°F , -6°C
Humidity: 86%
Barometer: 30.52 inHg , 1033.5 hPa
Summary: Light Snow
Clouds: Partly cloudy
Visibility: 3 miles , 5 km
Cloud details: Partly cloudy 1100 ft
Partly cloudy 2300 ft
2015/03/01 16:10 KDMW 011610Z AUTO 17007KT 3SM -SN SCT011 SCT023 M04/M06 A3052 RMK AO2
 
KNAK - Annapolis/Naval, Maryland, USA
Distance from station: S 30mi, 48km
Updated: Sun, 01-Mar-2015 11:26am EST
Light freezing, Rain, Mist, Overcast
Light freezing, Rain, Mist, Overcast
 Wind from S
Wind: S 8 mph , 13 km/h
Temperature: 27°F , -3°C
Wind Chill: 19°F , -7°C
Dew Point: 21°F , -6°C
Humidity: 80%
Barometer: 30.59 inHg , 1035.9 hPa
Summary: Light freezing, Rain, Mist
Clouds: Overcast
Visibility: 4 miles , 6 km
Cloud details: Mostly cloudy 1300 ft
Overcast 3900 ft
2015/03/01 16:26 KNAK 011626Z AUTO 17007KT 4SM -FZRA BR BKN013 OVC039 M03/M06 A3059 RMK AO2 P0002 I1001 T10331056
KW29 - Stevensville, Maryland, USA
Distance from station: SSE 31mi, 50km
Updated: Sun, 01-Mar-2015 11:13am EST

 Wind from S
Wind: S 8 mph , 13 km/h
Temperature: 27°F , -3°C
Wind Chill: 19°F , -7°C
Dew Point: 23°F , -5°C
Humidity: 86%
Barometer: 30.60 inHg , 1036.2 hPa
Visibility: 5 miles , 8 km
2015/03/01 16:13 KW29 011613Z AUTO 17007KT 5SM UP M03/M05 A3060 RMK AO1
 
KCGS - College Park, Maryland, USA
Distance from station: SW 38mi, 61km
Updated: Sun, 01-Mar-2015 11:10am EST
Overcast
Overcast
 Wind from SSE
Wind: SSE 3 mph , 6 km/h
Temperature: 28°F , -2°C
Dew Point: 27°F , -3°C
Humidity: 93%
Barometer: 30.60 inHg , 1036.2 hPa
Clouds: Overcast
Visibility: 5 miles , 8 km
Cloud details: Partly cloudy 1200 ft
Overcast 3800 ft
2015/03/01 16:10 KCGS 011610Z AUTO 16003KT 5SM SCT012 OVC038 M02/M03 A3060 RMK AO1
KGAI - Gaithersburg, Maryland, USA
Distance from station: WSW 40mi, 65km
Updated: Sun, 01-Mar-2015 11:35am EST
Overcast
Overcast
 Wind from S
Wind: S 7 mph , 11 km/h
Temperature: 27°F , -3°C
Wind Chill: 19°F , -7°C
Dew Point: 21°F , -6°C
Humidity: 80%
Barometer: 30.58 inHg , 1035.6 hPa
Clouds: Overcast
Visibility: 5 miles , 8 km
Cloud details: Few Clouds 1100 ft
Overcast 3700 ft
2015/03/01 16:35 KGAI 011635Z AUTO 17006KT 5SM FEW011 OVC037 M03/M06 A3058 RMK AO1
 
KTHV - York, Pennsylvania, USA
Distance from station: NNW 40mi, 65km
Updated: Sun, 01-Mar-2015 11:28am EST
Light snow, Overcast
Light snow, Overcast
 Wind from varies
Wind: varies 6 mph , 9 km/h
Temperature: 25°F , -4°C
Wind Chill: 18°F , -8°C
Dew Point: 19°F , -7°C
Humidity: 80%
Barometer: 30.52 inHg , 1033.5 hPa
Summary: Light Snow
Clouds: Overcast
Visibility: 3 miles , 5 km
Cloud details: Mostly cloudy 1500 ft
Mostly cloudy 2400 ft
Overcast 2800 ft
2015/03/01 16:28 KTHV 011628Z AUTO VRB05KT 3SM -SN BKN015 BKN024 OVC028 M04/M07 A3052 RMK AO2 P0000 T10391067
KFDK - Frederick, Maryland, USA
Distance from station: W 47mi, 75km
Updated: Sun, 01-Mar-2015 10:56am EST

 
Visibility: 2.9 miles
2015/03/01 15:56 KFDK 011556Z 1804KT 3SM -SN OVC012 M02/M06 A3059
 
KESN - Easton/Newnam, Maryland, USA
Distance from station: SSE 48mi, 78km
Updated: Sun, 01-Mar-2015 10:55am EST
Light snow, Overcast
Light snow, Overcast
 Wind from calm
Wind: Calm
Temperature: 27°F , -3°C
Dew Point: 25°F , -4°C
Humidity: 93%
Barometer: 30.65 inHg , 1037.9 hPa
Summary: Light Snow
Clouds: Overcast
Visibility: 3 miles , 5 km
Cloud details: Mostly cloudy 800 ft
Mostly cloudy 1200 ft
Overcast 4000 ft
2015/03/01 15:55 KESN 011555Z 00000KT 3SM -SN BKN008 BKN012 OVC040 M03/M04 A3065
KDCA - Washington/Natl, Washington D.c., USA
Distance from station: SW 49mi, 79km
Updated: Sun, 01-Mar-2015 11:20am EST

 Wind from S
Wind: S 6 mph , 9 km/h
Visibility: 3 miles , 5 km
2015/03/01 16:20 KDCA 011620Z 18005KT 3SM -FZRAPL BKN012 OVC036 M02/M05 A3060 RMK AO2 PLB01 P0004
 
KLNS - Lancaster, Pennsylvania, USA
Distance from station: N 49mi, 79km
Updated: Sun, 01-Mar-2015 11:27am EST
Light snow, Mist, Overcast
Light snow, Mist, Overcast
 Wind from SSE
Wind: SSE 7 mph , 11 km/h
Temperature: 23°F , -5°C
Wind Chill: 15°F , -9°C
Dew Point: 19°F , -7°C
Humidity: 86%
Barometer: 30.54 inHg , 1034.2 hPa
Summary: Light snow, Mist
Clouds: Overcast
Visibility: 3/4 mile , 5 km
Cloud details: Overcast 1700 ft
2015/03/01 16:27 KLNS 011627Z 16006KT 3/4SM -SN BR VV017 M05/M07 A3054 RMK AO2 P0001 T10501067
KILG - Wilmington, Delaware, USA
Distance from station: ENE 50mi, 81km
Updated: Sun, 01-Mar-2015 11:24am EST
Light snow, Overcast
Light snow, Overcast
 Wind from S
Wind: S 10 mph , 17 km/h
Temperature: 25°F , -4°C
Wind Chill: 15°F , -9°C
Dew Point: 19°F , -7°C
Humidity: 80%
Barometer: 30.61 inHg , 1036.6 hPa
Summary: Light Snow
Clouds: Overcast
Visibility: 3 miles , 5 km
Cloud details: Partly cloudy 1200 ft
Mostly cloudy 2900 ft
Overcast 3500 ft
2015/03/01 16:24 KILG 011624Z 17009KT 3SM -SN SCT012 BKN029 OVC035 M04/M07 A3061 RMK AO2 TWR VIS 8 UPB09E11SNE09B11 P0001 T10391067